sensor_id;sensor_type;location;lat;lon;timestamp;P1;durP1;ratioP1;P2;durP2;ratioP2
36353;SDS011;22383;51.114;13.666;2023-12-20T00:00:37;8.55;;;4.95;;
36353;SDS011;22383;51.114;13.666;2023-12-20T00:03:07;9.73;;;5.10;;
36353;SDS011;22383;51.114;13.666;2023-12-20T00:05:34;8.70;;;5.10;;
36353;SDS011;22383;51.114;13.666;2023-12-20T00:08:02;9.80;;;5.20;;
36353;SDS011;22383;51.114;13.666;2023-12-20T00:10:32;13.23;;;5.15;;
36353;SDS011;22383;51.114;13.666;2023-12-20T00:12:59;10.80;;;5.60;;
36353;SDS011;22383;51.114;13.666;2023-12-20T00:15:26;7.60;;;4.60;;
36353;SDS011;22383;51.114;13.666;2023-12-20T00:17:53;9.50;;;5.50;;
36353;SDS011;22383;51.114;13.666;2023-12-20T00:20:21;6.72;;;4.63;;
36353;SDS011;22383;51.114;13.666;2023-12-20T00:22:48;8.85;;;5.03;;
36353;SDS011;22383;51.114;13.666;2023-12-20T00:25:15;9.80;;;5.50;;
36353;SDS011;22383;51.114;13.666;2023-12-20T00:27:43;8.88;;;4.82;;
36353;SDS011;22383;51.114;13.666;2023-12-20T00:32:38;8.35;;;4.50;;
36353;SDS011;22383;51.114;13.666;2023-12-20T00:37:32;6.85;;;4.18;;
36353;SDS011;22383;51.114;13.666;2023-12-20T00:39:59;8.70;;;4.75;;
36353;SDS011;22383;51.114;13.666;2023-12-20T00:42:27;8.25;;;4.18;;
36353;SDS011;22383;51.114;13.666;2023-12-20T00:44:54;9.07;;;4.90;;
36353;SDS011;22383;51.114;13.666;2023-12-20T00:47:21;9.73;;;4.82;;
36353;SDS011;22383;51.114;13.666;2023-12-20T00:49:49;8.45;;;4.20;;
36353;SDS011;22383;51.114;13.666;2023-12-20T00:52:16;7.85;;;4.10;;
36353;SDS011;22383;51.114;13.666;2023-12-20T00:54:44;6.80;;;3.95;;
36353;SDS011;22383;51.114;13.666;2023-12-20T00:57:12;8.73;;;4.32;;
36353;SDS011;22383;51.114;13.666;2023-12-20T00:59:39;8.35;;;4.13;;
36353;SDS011;22383;51.114;13.666;2023-12-20T01:02:06;8.43;;;3.80;;
36353;SDS011;22383;51.114;13.666;2023-12-20T01:04:34;10.75;;;4.05;;
36353;SDS011;22383;51.114;13.666;2023-12-20T01:07:01;7.97;;;4.05;;
36353;SDS011;22383;51.114;13.666;2023-12-20T01:09:28;7.15;;;4.00;;
36353;SDS011;22383;51.114;13.666;2023-12-20T01:11:55;6.65;;;3.95;;
36353;SDS011;22383;51.114;13.666;2023-12-20T01:14:22;6.03;;;3.53;;
36353;SDS011;22383;51.114;13.666;2023-12-20T01:16:49;6.43;;;3.92;;
36353;SDS011;22383;51.114;13.666;2023-12-20T01:19:16;5.85;;;3.60;;
36353;SDS011;22383;51.114;13.666;2023-12-20T01:21:44;6.53;;;3.30;;
36353;SDS011;22383;51.114;13.666;2023-12-20T01:24:11;6.50;;;3.53;;
36353;SDS011;22383;51.114;13.666;2023-12-20T01:26:38;7.82;;;3.25;;
36353;SDS011;22383;51.114;13.666;2023-12-20T01:29:05;4.18;;;3.03;;
36353;SDS011;22383;51.114;13.666;2023-12-20T01:31:32;4.30;;;2.60;;
36353;SDS011;22383;51.114;13.666;2023-12-20T01:33:59;4.70;;;2.90;;
36353;SDS011;22383;51.114;13.666;2023-12-20T01:36:27;5.45;;;3.22;;
36353;SDS011;22383;51.114;13.666;2023-12-20T01:38:54;5.10;;;2.70;;
36353;SDS011;22383;51.114;13.666;2023-12-20T01:41:21;4.28;;;2.88;;
36353;SDS011;22383;51.114;13.666;2023-12-20T01:43:48;4.68;;;2.65;;
36353;SDS011;22383;51.114;13.666;2023-12-20T01:46:17;4.35;;;2.60;;
36353;SDS011;22383;51.114;13.666;2023-12-20T01:48:47;4.40;;;2.38;;
36353;SDS011;22383;51.114;13.666;2023-12-20T01:51:15;3.80;;;2.60;;
36353;SDS011;22383;51.114;13.666;2023-12-20T01:53:42;4.20;;;2.38;;
36353;SDS011;22383;51.114;13.666;2023-12-20T01:56:10;6.55;;;5.03;;
36353;SDS011;22383;51.114;13.666;2023-12-20T01:58:39;3.15;;;1.90;;
36353;SDS011;22383;51.114;13.666;2023-12-20T02:01:11;3.08;;;2.33;;
36353;SDS011;22383;51.114;13.666;2023-12-20T02:06:07;3.33;;;2.13;;
36353;SDS011;22383;51.114;13.666;2023-12-20T02:08:35;4.05;;;2.00;;
36353;SDS011;22383;51.114;13.666;2023-12-20T02:11:03;2.42;;;2.08;;
36353;SDS011;22383;51.114;13.666;2023-12-20T02:13:31;3.40;;;2.08;;
36353;SDS011;22383;51.114;13.666;2023-12-20T02:15:59;3.30;;;2.38;;
36353;SDS011;22383;51.114;13.666;2023-12-20T02:18:27;3.22;;;2.10;;
36353;SDS011;22383;51.114;13.666;2023-12-20T02:20:55;3.55;;;2.08;;
36353;SDS011;22383;51.114;13.666;2023-12-20T02:23:23;2.88;;;1.50;;
36353;SDS011;22383;51.114;13.666;2023-12-20T02:25:51;3.75;;;1.90;;
36353;SDS011;22383;51.114;13.666;2023-12-20T02:28:18;5.03;;;2.00;;
36353;SDS011;22383;51.114;13.666;2023-12-20T02:30:45;2.00;;;1.55;;
36353;SDS011;22383;51.114;13.666;2023-12-20T02:33:12;3.33;;;2.22;;
36353;SDS011;22383;51.114;13.666;2023-12-20T02:35:41;1.63;;;1.40;;
36353;SDS011;22383;51.114;13.666;2023-12-20T02:38:08;1.58;;;1.48;;
36353;SDS011;22383;51.114;13.666;2023-12-20T02:40:35;3.13;;;1.65;;
36353;SDS011;22383;51.114;13.666;2023-12-20T02:43:02;3.08;;;1.60;;
36353;SDS011;22383;51.114;13.666;2023-12-20T02:45:29;2.35;;;1.35;;
36353;SDS011;22383;51.114;13.666;2023-12-20T02:47:57;1.52;;;1.40;;
36353;SDS011;22383;51.114;13.666;2023-12-20T02:50:24;1.80;;;1.55;;
36353;SDS011;22383;51.114;13.666;2023-12-20T02:52:51;2.83;;;1.60;;
36353;SDS011;22383;51.114;13.666;2023-12-20T02:55:18;2.00;;;1.42;;
36353;SDS011;22383;51.114;13.666;2023-12-20T02:57:45;1.63;;;1.52;;
36353;SDS011;22383;51.114;13.666;2023-12-20T03:00:13;2.15;;;1.52;;
36353;SDS011;22383;51.114;13.666;2023-12-20T03:02:40;7.78;;;1.73;;
36353;SDS011;22383;51.114;13.666;2023-12-20T03:05:08;2.65;;;1.70;;
36353;SDS011;22383;51.114;13.666;2023-12-20T03:07:36;2.15;;;1.60;;
36353;SDS011;22383;51.114;13.666;2023-12-20T03:10:04;3.28;;;1.70;;
36353;SDS011;22383;51.114;13.666;2023-12-20T03:12:46;5.03;;;1.60;;
36353;SDS011;22383;51.114;13.666;2023-12-20T03:15:13;4.97;;;2.03;;
36353;SDS011;22383;51.114;13.666;2023-12-20T03:17:40;2.30;;;1.65;;
36353;SDS011;22383;51.114;13.666;2023-12-20T03:20:08;1.55;;;1.42;;
36353;SDS011;22383;51.114;13.666;2023-12-20T03:22:35;2.33;;;1.50;;
36353;SDS011;22383;51.114;13.666;2023-12-20T03:25:02;3.75;;;1.70;;
36353;SDS011;22383;51.114;13.666;2023-12-20T03:27:30;2.92;;;1.70;;
36353;SDS011;22383;51.114;13.666;2023-12-20T03:29:57;1.63;;;1.45;;
36353;SDS011;22383;51.114;13.666;2023-12-20T03:32:24;2.72;;;1.67;;
36353;SDS011;22383;51.114;13.666;2023-12-20T03:34:52;2.83;;;1.88;;
36353;SDS011;22383;51.114;13.666;2023-12-20T03:37:19;2.25;;;1.50;;
36353;SDS011;22383;51.114;13.666;2023-12-20T03:39:46;3.78;;;1.60;;
36353;SDS011;22383;51.114;13.666;2023-12-20T03:42:14;4.07;;;1.55;;
36353;SDS011;22383;51.114;13.666;2023-12-20T03:44:41;2.08;;;1.63;;
36353;SDS011;22383;51.114;13.666;2023-12-20T03:47:08;2.40;;;2.10;;
36353;SDS011;22383;51.114;13.666;2023-12-20T03:49:35;2.08;;;1.52;;
36353;SDS011;22383;51.114;13.666;2023-12-20T03:52:04;2.13;;;1.50;;
36353;SDS011;22383;51.114;13.666;2023-12-20T03:54:32;1.98;;;1.30;;
36353;SDS011;22383;51.114;13.666;2023-12-20T03:57:00;2.17;;;1.50;;
36353;SDS011;22383;51.114;13.666;2023-12-20T03:59:27;1.98;;;1.50;;
36353;SDS011;22383;51.114;13.666;2023-12-20T04:01:54;2.42;;;1.55;;
36353;SDS011;22383;51.114;13.666;2023-12-20T04:04:21;4.13;;;1.90;;
36353;SDS011;22383;51.114;13.666;2023-12-20T04:09:16;2.40;;;1.95;;
36353;SDS011;22383;51.114;13.666;2023-12-20T04:11:43;2.03;;;1.63;;
36353;SDS011;22383;51.114;13.666;2023-12-20T04:14:10;1.52;;;1.42;;
36353;SDS011;22383;51.114;13.666;2023-12-20T04:16:38;2.70;;;1.55;;
36353;SDS011;22383;51.114;13.666;2023-12-20T04:19:06;2.40;;;1.60;;
36353;SDS011;22383;51.114;13.666;2023-12-20T04:21:33;2.67;;;1.90;;
36353;SDS011;22383;51.114;13.666;2023-12-20T04:24:00;4.50;;;1.58;;
36353;SDS011;22383;51.114;13.666;2023-12-20T04:26:27;4.43;;;1.85;;
36353;SDS011;22383;51.114;13.666;2023-12-20T04:28:54;2.00;;;1.50;;
36353;SDS011;22383;51.114;13.666;2023-12-20T04:31:21;2.17;;;1.45;;
36353;SDS011;22383;51.114;13.666;2023-12-20T04:33:49;2.30;;;1.60;;
36353;SDS011;22383;51.114;13.666;2023-12-20T04:36:16;2.88;;;1.60;;
36353;SDS011;22383;51.114;13.666;2023-12-20T04:41:11;4.18;;;1.70;;
36353;SDS011;22383;51.114;13.666;2023-12-20T04:43:42;2.38;;;1.60;;
36353;SDS011;22383;51.114;13.666;2023-12-20T04:46:09;1.70;;;1.42;;
36353;SDS011;22383;51.114;13.666;2023-12-20T04:48:36;1.88;;;1.35;;
36353;SDS011;22383;51.114;13.666;2023-12-20T04:51:04;4.30;;;1.90;;
36353;SDS011;22383;51.114;13.666;2023-12-20T04:53:31;2.78;;;1.95;;
36353;SDS011;22383;51.114;13.666;2023-12-20T04:55:58;5.35;;;1.90;;
36353;SDS011;22383;51.114;13.666;2023-12-20T04:58:25;3.53;;;1.80;;
36353;SDS011;22383;51.114;13.666;2023-12-20T05:00:53;2.97;;;2.38;;
36353;SDS011;22383;51.114;13.666;2023-12-20T05:03:20;2.60;;;1.65;;
36353;SDS011;22383;51.114;13.666;2023-12-20T05:05:47;3.45;;;1.98;;
36353;SDS011;22383;51.114;13.666;2023-12-20T05:08:15;3.35;;;2.08;;
36353;SDS011;22383;51.114;13.666;2023-12-20T05:10:42;2.63;;;1.85;;
36353;SDS011;22383;51.114;13.666;2023-12-20T05:13:09;5.20;;;1.85;;
36353;SDS011;22383;51.114;13.666;2023-12-20T05:15:37;2.65;;;1.70;;
36353;SDS011;22383;51.114;13.666;2023-12-20T05:18:04;3.10;;;2.25;;
36353;SDS011;22383;51.114;13.666;2023-12-20T05:20:32;1.83;;;1.60;;
36353;SDS011;22383;51.114;13.666;2023-12-20T05:22:59;2.33;;;1.80;;
36353;SDS011;22383;51.114;13.666;2023-12-20T05:25:26;3.33;;;1.77;;
36353;SDS011;22383;51.114;13.666;2023-12-20T05:27:54;2.13;;;1.70;;
36353;SDS011;22383;51.114;13.666;2023-12-20T05:30:22;2.75;;;2.03;;
36353;SDS011;22383;51.114;13.666;2023-12-20T05:32:50;3.17;;;2.05;;
36353;SDS011;22383;51.114;13.666;2023-12-20T05:35:18;3.65;;;2.40;;
36353;SDS011;22383;51.114;13.666;2023-12-20T05:37:46;3.47;;;2.20;;
36353;SDS011;22383;51.114;13.666;2023-12-20T05:40:13;3.38;;;1.90;;
36353;SDS011;22383;51.114;13.666;2023-12-20T05:42:41;2.20;;;1.70;;
36353;SDS011;22383;51.114;13.666;2023-12-20T05:45:08;1.80;;;1.60;;
36353;SDS011;22383;51.114;13.666;2023-12-20T05:47:36;2.72;;;2.15;;
36353;SDS011;22383;51.114;13.666;2023-12-20T05:50:03;2.60;;;1.55;;
36353;SDS011;22383;51.114;13.666;2023-12-20T05:52:31;2.58;;;1.90;;
36353;SDS011;22383;51.114;13.666;2023-12-20T05:54:58;2.95;;;2.15;;
36353;SDS011;22383;51.114;13.666;2023-12-20T05:57:28;3.33;;;1.92;;
36353;SDS011;22383;51.114;13.666;2023-12-20T05:59:55;3.25;;;1.80;;
36353;SDS011;22383;51.114;13.666;2023-12-20T06:02:22;2.83;;;1.95;;
36353;SDS011;22383;51.114;13.666;2023-12-20T06:04:50;3.17;;;2.22;;
36353;SDS011;22383;51.114;13.666;2023-12-20T06:07:17;5.28;;;2.25;;
36353;SDS011;22383;51.114;13.666;2023-12-20T06:09:44;3.47;;;2.10;;
36353;SDS011;22383;51.114;13.666;2023-12-20T06:12:12;3.40;;;2.22;;
36353;SDS011;22383;51.114;13.666;2023-12-20T06:14:39;2.92;;;2.10;;
36353;SDS011;22383;51.114;13.666;2023-12-20T06:17:06;4.25;;;2.03;;
36353;SDS011;22383;51.114;13.666;2023-12-20T06:19:33;3.67;;;2.65;;
36353;SDS011;22383;51.114;13.666;2023-12-20T06:22:00;4.65;;;2.53;;
36353;SDS011;22383;51.114;13.666;2023-12-20T06:24:28;4.00;;;2.50;;
36353;SDS011;22383;51.114;13.666;2023-12-20T06:26:56;5.07;;;2.47;;
36353;SDS011;22383;51.114;13.666;2023-12-20T06:29:23;4.82;;;2.65;;
36353;SDS011;22383;51.114;13.666;2023-12-20T06:31:50;3.58;;;2.70;;
36353;SDS011;22383;51.114;13.666;2023-12-20T06:34:18;5.55;;;3.50;;
36353;SDS011;22383;51.114;13.666;2023-12-20T06:36:45;6.70;;;3.83;;
36353;SDS011;22383;51.114;13.666;2023-12-20T06:39:12;5.82;;;3.53;;
36353;SDS011;22383;51.114;13.666;2023-12-20T06:41:40;7.45;;;5.00;;
36353;SDS011;22383;51.114;13.666;2023-12-20T06:44:07;12.45;;;4.93;;
36353;SDS011;22383;51.114;13.666;2023-12-20T06:46:35;11.05;;;5.47;;
36353;SDS011;22383;51.114;13.666;2023-12-20T06:49:02;12.32;;;5.93;;
36353;SDS011;22383;51.114;13.666;2023-12-20T06:51:29;13.65;;;5.72;;
36353;SDS011;22383;51.114;13.666;2023-12-20T06:53:57;9.23;;;4.40;;
36353;SDS011;22383;51.114;13.666;2023-12-20T06:56:25;11.68;;;5.13;;
36353;SDS011;22383;51.114;13.666;2023-12-20T06:58:52;11.02;;;5.28;;
36353;SDS011;22383;51.114;13.666;2023-12-20T07:01:19;13.73;;;6.90;;
36353;SDS011;22383;51.114;13.666;2023-12-20T07:03:46;15.10;;;7.15;;
36353;SDS011;22383;51.114;13.666;2023-12-20T07:06:13;11.63;;;6.18;;
36353;SDS011;22383;51.114;13.666;2023-12-20T07:08:43;13.82;;;6.57;;
36353;SDS011;22383;51.114;13.666;2023-12-20T07:11:11;14.55;;;6.78;;
36353;SDS011;22383;51.114;13.666;2023-12-20T07:13:38;13.38;;;6.45;;
36353;SDS011;22383;51.114;13.666;2023-12-20T07:16:05;12.27;;;6.80;;
36353;SDS011;22383;51.114;13.666;2023-12-20T07:18:33;13.15;;;7.57;;
36353;SDS011;22383;51.114;13.666;2023-12-20T07:21:00;12.50;;;6.78;;
36353;SDS011;22383;51.114;13.666;2023-12-20T07:23:27;14.40;;;7.47;;
36353;SDS011;22383;51.114;13.666;2023-12-20T07:25:54;13.60;;;6.65;;
36353;SDS011;22383;51.114;13.666;2023-12-20T07:28:22;12.50;;;6.55;;
36353;SDS011;22383;51.114;13.666;2023-12-20T07:30:49;13.13;;;6.90;;
36353;SDS011;22383;51.114;13.666;2023-12-20T07:33:16;12.90;;;6.95;;
36353;SDS011;22383;51.114;13.666;2023-12-20T07:35:43;12.10;;;7.00;;
36353;SDS011;22383;51.114;13.666;2023-12-20T07:38:12;15.10;;;7.43;;
36353;SDS011;22383;51.114;13.666;2023-12-20T07:40:39;12.55;;;6.97;;
36353;SDS011;22383;51.114;13.666;2023-12-20T07:43:07;13.82;;;7.30;;
36353;SDS011;22383;51.114;13.666;2023-12-20T07:45:34;15.80;;;8.05;;
36353;SDS011;22383;51.114;13.666;2023-12-20T07:48:01;13.88;;;7.75;;
36353;SDS011;22383;51.114;13.666;2023-12-20T07:50:28;10.55;;;6.32;;
36353;SDS011;22383;51.114;13.666;2023-12-20T07:52:56;12.48;;;6.82;;
36353;SDS011;22383;51.114;13.666;2023-12-20T07:55:23;12.88;;;7.38;;
36353;SDS011;22383;51.114;13.666;2023-12-20T07:57:50;11.48;;;6.35;;
36353;SDS011;22383;51.114;13.666;2023-12-20T08:00:17;11.32;;;6.68;;
36353;SDS011;22383;51.114;13.666;2023-12-20T08:02:45;12.30;;;6.63;;
36353;SDS011;22383;51.114;13.666;2023-12-20T08:05:12;13.05;;;6.47;;
36353;SDS011;22383;51.114;13.666;2023-12-20T08:07:42;14.70;;;6.55;;
36353;SDS011;22383;51.114;13.666;2023-12-20T08:10:09;11.13;;;6.22;;
36353;SDS011;22383;51.114;13.666;2023-12-20T08:12:37;13.27;;;8.13;;
36353;SDS011;22383;51.114;13.666;2023-12-20T08:15:04;14.75;;;9.98;;
36353;SDS011;22383;51.114;13.666;2023-12-20T08:17:32;8.50;;;4.85;;
36353;SDS011;22383;51.114;13.666;2023-12-20T08:19:59;6.53;;;4.47;;
36353;SDS011;22383;51.114;13.666;2023-12-20T08:22:27;11.18;;;4.07;;
36353;SDS011;22383;51.114;13.666;2023-12-20T08:24:54;8.65;;;3.92;;
36353;SDS011;22383;51.114;13.666;2023-12-20T08:27:21;7.70;;;3.88;;
36353;SDS011;22383;51.114;13.666;2023-12-20T08:29:49;6.93;;;3.00;;
36353;SDS011;22383;51.114;13.666;2023-12-20T08:32:17;6.82;;;3.28;;
36353;SDS011;22383;51.114;13.666;2023-12-20T08:34:44;5.63;;;3.15;;
36353;SDS011;22383;51.114;13.666;2023-12-20T08:37:12;5.05;;;3.03;;
36353;SDS011;22383;51.114;13.666;2023-12-20T08:39:39;6.47;;;2.50;;
36353;SDS011;22383;51.114;13.666;2023-12-20T08:42:11;3.63;;;2.17;;
36353;SDS011;22383;51.114;13.666;2023-12-20T08:44:38;4.28;;;2.25;;
36353;SDS011;22383;51.114;13.666;2023-12-20T08:47:05;4.88;;;2.40;;
36353;SDS011;22383;51.114;13.666;2023-12-20T08:49:33;3.63;;;2.00;;
36353;SDS011;22383;51.114;13.666;2023-12-20T08:52:00;6.22;;;2.00;;
36353;SDS011;22383;51.114;13.666;2023-12-20T08:54:27;3.50;;;1.92;;
36353;SDS011;22383;51.114;13.666;2023-12-20T08:56:54;2.35;;;1.45;;
36353;SDS011;22383;51.114;13.666;2023-12-20T08:59:21;6.35;;;2.10;;
36353;SDS011;22383;51.114;13.666;2023-12-20T09:01:48;4.68;;;2.22;;
36353;SDS011;22383;51.114;13.666;2023-12-20T09:04:21;2.17;;;1.52;;
36353;SDS011;22383;51.114;13.666;2023-12-20T09:06:48;2.75;;;1.50;;
36353;SDS011;22383;51.114;13.666;2023-12-20T09:09:15;6.60;;;1.48;;
36353;SDS011;22383;51.114;13.666;2023-12-20T09:11:43;5.20;;;1.50;;
36353;SDS011;22383;51.114;13.666;2023-12-20T09:14:13;5.57;;;1.92;;
36353;SDS011;22383;51.114;13.666;2023-12-20T09:16:40;2.50;;;1.35;;
36353;SDS011;22383;51.114;13.666;2023-12-20T09:19:07;3.60;;;1.23;;
36353;SDS011;22383;51.114;13.666;2023-12-20T09:21:34;4.88;;;1.27;;
36353;SDS011;22383;51.114;13.666;2023-12-20T09:24:01;6.20;;;1.60;;
36353;SDS011;22383;51.114;13.666;2023-12-20T09:26:29;2.25;;;1.35;;
36353;SDS011;22383;51.114;13.666;2023-12-20T09:28:56;5.53;;;2.08;;
36353;SDS011;22383;51.114;13.666;2023-12-20T09:31:23;3.63;;;1.45;;
36353;SDS011;22383;51.114;13.666;2023-12-20T09:33:50;4.22;;;1.88;;
36353;SDS011;22383;51.114;13.666;2023-12-20T09:36:18;6.30;;;2.08;;
36353;SDS011;22383;51.114;13.666;2023-12-20T09:38:46;13.40;;;3.88;;
36353;SDS011;22383;51.114;13.666;2023-12-20T09:41:13;3.20;;;2.03;;
36353;SDS011;22383;51.114;13.666;2023-12-20T09:43:41;7.18;;;2.15;;
36353;SDS011;22383;51.114;13.666;2023-12-20T09:48:38;5.45;;;1.48;;
36353;SDS011;22383;51.114;13.666;2023-12-20T09:51:07;8.23;;;1.95;;
36353;SDS011;22383;51.114;13.666;2023-12-20T09:53:35;3.05;;;1.20;;
36353;SDS011;22383;51.114;13.666;2023-12-20T09:56:04;3.83;;;1.67;;
36353;SDS011;22383;51.114;13.666;2023-12-20T09:58:35;10.77;;;1.83;;
36353;SDS011;22383;51.114;13.666;2023-12-20T10:01:04;5.75;;;1.85;;
36353;SDS011;22383;51.114;13.666;2023-12-20T10:03:31;4.53;;;1.80;;
36353;SDS011;22383;51.114;13.666;2023-12-20T10:05:58;4.22;;;1.15;;
36353;SDS011;22383;51.114;13.666;2023-12-20T10:08:27;3.90;;;1.90;;
36353;SDS011;22383;51.114;13.666;2023-12-20T10:10:56;5.10;;;1.70;;
36353;SDS011;22383;51.114;13.666;2023-12-20T10:13:29;4.47;;;1.80;;
36353;SDS011;22383;51.114;13.666;2023-12-20T10:15:56;7.55;;;1.98;;
36353;SDS011;22383;51.114;13.666;2023-12-20T10:18:24;5.60;;;1.80;;
36353;SDS011;22383;51.114;13.666;2023-12-20T10:21:05;5.50;;;1.65;;
36353;SDS011;22383;51.114;13.666;2023-12-20T10:23:33;4.70;;;2.17;;
36353;SDS011;22383;51.114;13.666;2023-12-20T10:26:00;2.33;;;1.60;;
36353;SDS011;22383;51.114;13.666;2023-12-20T10:28:28;5.72;;;1.83;;
36353;SDS011;22383;51.114;13.666;2023-12-20T10:31:01;12.77;;;2.20;;
36353;SDS011;22383;51.114;13.666;2023-12-20T10:33:30;4.00;;;1.95;;
36353;SDS011;22383;51.114;13.666;2023-12-20T10:35:59;7.90;;;2.17;;
36353;SDS011;22383;51.114;13.666;2023-12-20T10:38:27;4.20;;;2.17;;
36353;SDS011;22383;51.114;13.666;2023-12-20T10:40:56;11.48;;;1.90;;
36353;SDS011;22383;51.114;13.666;2023-12-20T10:43:26;3.92;;;1.77;;
36353;SDS011;22383;51.114;13.666;2023-12-20T10:45:56;3.20;;;1.65;;
36353;SDS011;22383;51.114;13.666;2023-12-20T10:48:24;3.65;;;1.85;;
36353;SDS011;22383;51.114;13.666;2023-12-20T10:50:56;8.98;;;2.13;;
36353;SDS011;22383;51.114;13.666;2023-12-20T10:53:24;6.20;;;1.95;;
36353;SDS011;22383;51.114;13.666;2023-12-20T10:55:52;4.25;;;2.25;;
36353;SDS011;22383;51.114;13.666;2023-12-20T10:58:24;5.35;;;2.22;;
36353;SDS011;22383;51.114;13.666;2023-12-20T11:00:55;6.78;;;1.95;;
36353;SDS011;22383;51.114;13.666;2023-12-20T11:03:27;5.00;;;1.60;;
36353;SDS011;22383;51.114;13.666;2023-12-20T11:06:08;4.55;;;1.40;;
36353;SDS011;22383;51.114;13.666;2023-12-20T11:08:49;7.63;;;2.47;;
36353;SDS011;22383;51.114;13.666;2023-12-20T11:13:58;6.60;;;2.25;;
36353;SDS011;22383;51.114;13.666;2023-12-20T11:16:33;5.05;;;2.20;;
36353;SDS011;22383;51.114;13.666;2023-12-20T11:19:17;3.65;;;1.65;;
36353;SDS011;22383;51.114;13.666;2023-12-20T11:21:45;6.35;;;2.30;;
36353;SDS011;22383;51.114;13.666;2023-12-20T11:24:13;6.90;;;2.72;;
36353;SDS011;22383;51.114;13.666;2023-12-20T11:26:47;7.63;;;2.33;;
36353;SDS011;22383;51.114;13.666;2023-12-20T11:29:29;5.60;;;1.92;;
36353;SDS011;22383;51.114;13.666;2023-12-20T11:31:57;8.60;;;2.15;;
36353;SDS011;22383;51.114;13.666;2023-12-20T11:34:26;6.20;;;2.03;;
36353;SDS011;22383;51.114;13.666;2023-12-20T11:36:59;4.28;;;1.95;;
36353;SDS011;22383;51.114;13.666;2023-12-20T11:39:27;3.20;;;1.83;;
36353;SDS011;22383;51.114;13.666;2023-12-20T11:41:55;5.97;;;2.08;;
36353;SDS011;22383;51.114;13.666;2023-12-20T11:44:25;7.57;;;2.03;;
36353;SDS011;22383;51.114;13.666;2023-12-20T11:46:54;4.50;;;2.00;;
36353;SDS011;22383;51.114;13.666;2023-12-20T11:49:24;5.18;;;2.08;;
36353;SDS011;22383;51.114;13.666;2023-12-20T11:51:52;3.03;;;2.03;;
36353;SDS011;22383;51.114;13.666;2023-12-20T11:54:19;7.57;;;1.70;;
36353;SDS011;22383;51.114;13.666;2023-12-20T11:56:47;3.03;;;1.65;;
36353;SDS011;22383;51.114;13.666;2023-12-20T11:59:14;3.58;;;2.40;;
36353;SDS011;22383;51.114;13.666;2023-12-20T12:01:50;6.18;;;2.20;;
36353;SDS011;22383;51.114;13.666;2023-12-20T12:04:18;5.18;;;1.83;;
36353;SDS011;22383;51.114;13.666;2023-12-20T12:06:46;8.25;;;2.00;;
36353;SDS011;22383;51.114;13.666;2023-12-20T12:09:14;3.30;;;2.25;;
36353;SDS011;22383;51.114;13.666;2023-12-20T12:11:42;6.70;;;2.42;;
36353;SDS011;22383;51.114;13.666;2023-12-20T12:16:37;9.30;;;2.10;;
36353;SDS011;22383;51.114;13.666;2023-12-20T12:19:04;7.15;;;2.20;;
36353;SDS011;22383;51.114;13.666;2023-12-20T12:21:31;7.13;;;1.70;;
36353;SDS011;22383;51.114;13.666;2023-12-20T12:24:09;4.93;;;1.80;;
36353;SDS011;22383;51.114;13.666;2023-12-20T12:26:37;5.25;;;1.95;;
36353;SDS011;22383;51.114;13.666;2023-12-20T12:29:07;3.75;;;1.80;;
36353;SDS011;22383;51.114;13.666;2023-12-20T12:31:34;4.63;;;1.80;;
36353;SDS011;22383;51.114;13.666;2023-12-20T12:34:02;14.13;;;2.15;;
36353;SDS011;22383;51.114;13.666;2023-12-20T12:36:30;8.63;;;1.90;;
36353;SDS011;22383;51.114;13.666;2023-12-20T12:38:57;5.68;;;3.38;;
36353;SDS011;22383;51.114;13.666;2023-12-20T12:41:25;4.28;;;1.90;;
36353;SDS011;22383;51.114;13.666;2023-12-20T12:43:52;3.95;;;2.10;;
36353;SDS011;22383;51.114;13.666;2023-12-20T12:46:20;7.40;;;2.83;;
36353;SDS011;22383;51.114;13.666;2023-12-20T12:48:47;7.30;;;1.92;;
36353;SDS011;22383;51.114;13.666;2023-12-20T12:51:14;12.00;;;2.03;;
36353;SDS011;22383;51.114;13.666;2023-12-20T12:53:41;8.30;;;2.40;;
36353;SDS011;22383;51.114;13.666;2023-12-20T12:56:09;4.57;;;1.70;;
36353;SDS011;22383;51.114;13.666;2023-12-20T12:58:36;6.53;;;1.52;;
36353;SDS011;22383;51.114;13.666;2023-12-20T13:01:03;3.95;;;1.60;;
36353;SDS011;22383;51.114;13.666;2023-12-20T13:03:31;5.38;;;1.67;;
36353;SDS011;22383;51.114;13.666;2023-12-20T13:05:58;6.53;;;1.45;;
36353;SDS011;22383;51.114;13.666;2023-12-20T13:08:26;8.23;;;1.95;;
36353;SDS011;22383;51.114;13.666;2023-12-20T13:10:54;7.15;;;1.73;;
36353;SDS011;22383;51.114;13.666;2023-12-20T13:13:22;4.20;;;1.60;;
36353;SDS011;22383;51.114;13.666;2023-12-20T13:15:49;5.53;;;1.80;;
36353;SDS011;22383;51.114;13.666;2023-12-20T13:18:20;5.38;;;1.83;;
36353;SDS011;22383;51.114;13.666;2023-12-20T13:20:47;2.67;;;1.30;;
36353;SDS011;22383;51.114;13.666;2023-12-20T13:23:14;5.50;;;1.60;;
36353;SDS011;22383;51.114;13.666;2023-12-20T13:25:42;6.38;;;1.95;;
36353;SDS011;22383;51.114;13.666;2023-12-20T13:28:09;6.40;;;1.80;;
36353;SDS011;22383;51.114;13.666;2023-12-20T13:30:36;6.47;;;1.75;;
36353;SDS011;22383;51.114;13.666;2023-12-20T13:33:04;3.30;;;1.48;;
36353;SDS011;22383;51.114;13.666;2023-12-20T13:35:32;2.78;;;1.70;;
36353;SDS011;22383;51.114;13.666;2023-12-20T13:38:00;4.18;;;1.45;;
36353;SDS011;22383;51.114;13.666;2023-12-20T13:40:28;7.40;;;1.63;;
36353;SDS011;22383;51.114;13.666;2023-12-20T13:42:55;6.07;;;1.88;;
36353;SDS011;22383;51.114;13.666;2023-12-20T13:45:23;7.80;;;1.85;;
36353;SDS011;22383;51.114;13.666;2023-12-20T13:47:50;5.15;;;1.58;;
36353;SDS011;22383;51.114;13.666;2023-12-20T13:50:17;10.60;;;1.80;;
36353;SDS011;22383;51.114;13.666;2023-12-20T13:52:45;6.43;;;2.05;;
36353;SDS011;22383;51.114;13.666;2023-12-20T13:55:13;8.05;;;1.58;;
36353;SDS011;22383;51.114;13.666;2023-12-20T14:00:21;2.15;;;1.20;;
36353;SDS011;22383;51.114;13.666;2023-12-20T14:05:17;4.45;;;1.55;;
36353;SDS011;22383;51.114;13.666;2023-12-20T14:07:45;6.70;;;1.80;;
36353;SDS011;22383;51.114;13.666;2023-12-20T14:10:13;13.18;;;7.63;;
36353;SDS011;22383;51.114;13.666;2023-12-20T14:12:41;5.25;;;1.90;;
36353;SDS011;22383;51.114;13.666;2023-12-20T14:15:08;4.22;;;1.45;;
36353;SDS011;22383;51.114;13.666;2023-12-20T14:17:38;4.88;;;1.38;;
36353;SDS011;22383;51.114;13.666;2023-12-20T14:20:06;3.95;;;1.50;;
36353;SDS011;22383;51.114;13.666;2023-12-20T14:22:34;4.15;;;1.70;;
36353;SDS011;22383;51.114;13.666;2023-12-20T14:25:02;4.55;;;1.60;;
36353;SDS011;22383;51.114;13.666;2023-12-20T14:27:30;3.90;;;1.33;;
36353;SDS011;22383;51.114;13.666;2023-12-20T14:29:57;4.55;;;1.90;;
36353;SDS011;22383;51.114;13.666;2023-12-20T14:32:24;3.55;;;1.98;;
36353;SDS011;22383;51.114;13.666;2023-12-20T14:34:53;4.38;;;1.65;;
36353;SDS011;22383;51.114;13.666;2023-12-20T14:37:22;6.35;;;1.77;;
36353;SDS011;22383;51.114;13.666;2023-12-20T14:39:49;6.60;;;1.67;;
36353;SDS011;22383;51.114;13.666;2023-12-20T14:42:16;3.72;;;1.60;;
36353;SDS011;22383;51.114;13.666;2023-12-20T14:44:43;4.40;;;1.67;;
36353;SDS011;22383;51.114;13.666;2023-12-20T14:47:11;3.95;;;1.33;;
36353;SDS011;22383;51.114;13.666;2023-12-20T14:49:38;5.28;;;1.55;;
36353;SDS011;22383;51.114;13.666;2023-12-20T14:52:05;2.08;;;1.58;;
36353;SDS011;22383;51.114;13.666;2023-12-20T14:54:32;3.33;;;1.30;;
36353;SDS011;22383;51.114;13.666;2023-12-20T14:57:00;6.65;;;2.05;;
36353;SDS011;22383;51.114;13.666;2023-12-20T14:59:31;4.00;;;1.40;;
36353;SDS011;22383;51.114;13.666;2023-12-20T15:01:59;7.15;;;1.75;;